createdAt,value
2018-10-11T01:13:12.057Z,13.98
2018-10-11T01:24:40.065Z,13.84
2018-10-11T02:22:01.075Z,13.56
2018-10-11T02:24:43.350Z,13.47
2018-10-11T03:18:49.034Z,13.02
2018-10-11T04:15:57.545Z,12.88
2018-10-11T04:18:25.816Z,12.86
2018-10-11T04:24:01.808Z,12.76
2018-10-11T05:24:03.418Z,12.12
2018-10-11T06:24:02.755Z,12.48
2018-10-11T08:18:57.462Z,17.45
2018-10-11T09:12:33.165Z,20.48
2018-10-11T09:21:18.181Z,20.16
2018-10-11T09:26:38.905Z,20.84
2018-10-11T09:29:10.580Z,20.92
2018-10-11T09:31:38.828Z,20.55
2018-10-11T09:34:07.177Z,20.97
2018-10-11T09:36:35.610Z,20.68
2018-10-11T09:39:07.124Z,20.58
2018-10-11T09:41:35.393Z,20.82
2018-10-11T09:44:03.664Z,20.63
2018-10-11T09:46:32.014Z,20.87
2018-10-11T09:49:00.274Z,20.88
2018-10-11T09:51:28.494Z,21.39
2018-10-11T09:53:56.723Z,21.14
2018-10-11T09:56:32.758Z,21.65
2018-10-11T09:59:01.030Z,22.05
2018-10-11T10:01:34.615Z,21.94
2018-10-11T10:04:02.875Z,22.31
2018-10-11T10:06:31.157Z,22.15
2018-10-11T10:08:59.990Z,22.04
2018-10-11T10:11:28.254Z,22.08
2018-10-11T10:14:09.098Z,22.43
2018-10-11T13:27:30.190Z,25.10
2018-10-11T13:29:58.429Z,25.60
2018-10-11T13:32:26.706Z,25.70
2018-10-11T13:34:54.968Z,25.82
2018-10-11T13:37:23.266Z,25.24
2018-10-11T13:39:54.792Z,25.57
2018-10-11T13:42:19.815Z,25.42
2018-10-11T13:44:48.050Z,25.38
2018-10-11T13:47:16.321Z,25.45
2018-10-11T13:49:44.593Z,25.78
2018-10-11T13:52:15.494Z,25.59
2018-10-11T13:54:41.120Z,25.78
2018-10-11T13:57:09.451Z,25.68
2018-10-11T13:59:37.741Z,25.38
2018-10-11T14:02:06.018Z,25.21
2018-10-11T14:04:34.345Z,25.20
2018-10-11T14:07:02.626Z,25.00
2018-10-11T14:09:30.880Z,25.25
2018-10-11T14:11:59.149Z,25.16
2018-10-11T14:23:21.678Z,25.28
2018-10-11T14:25:49.901Z,25.22
2018-10-11T17:20:21.683Z,18.92
2018-10-11T18:12:13.481Z,18.35
2018-10-11T18:14:41.839Z,18.29
2018-10-11T18:20:02.388Z,18.30
2018-10-11T18:22:37.412Z,18.28
2018-10-11T18:25:06.974Z,18.19
2018-10-11T18:27:35.498Z,18.13
2018-10-11T18:30:03.836Z,18.00
2018-10-11T18:32:32.173Z,18.08
2018-10-11T18:35:00.456Z,18.10
2018-10-11T18:37:28.865Z,18.00
2018-10-11T18:39:57.280Z,17.87
2018-10-11T18:42:26.644Z,17.93
2018-10-11T18:44:54.981Z,17.83
2018-10-11T18:47:23.274Z,17.92
2018-10-11T18:49:51.588Z,17.90
2018-10-11T18:52:19.857Z,17.88
2018-10-11T18:54:48.161Z,17.83
2018-10-11T18:57:16.490Z,17.86
2018-10-11T18:59:44.773Z,17.86
2018-10-11T19:02:13.107Z,17.82
2018-10-11T19:04:41.502Z,17.72
2018-10-11T19:07:10.082Z,17.67
2018-10-11T19:09:38.373Z,17.53
2018-10-11T19:12:06.639Z,17.55
2018-10-11T19:14:37.901Z,17.60
2018-10-11T19:31:29.679Z,17.52
2018-10-11T19:33:58.016Z,17.47
2018-10-11T19:36:26.314Z,17.36
2018-10-11T19:38:54.617Z,17.36
2018-10-11T19:41:22.929Z,17.34
2018-10-11T19:43:51.202Z,17.32
2018-10-11T19:46:19.461Z,17.29
2018-10-11T19:48:47.753Z,17.23
2018-10-11T19:51:16.185Z,17.30
2018-10-11T19:53:44.485Z,17.24
2018-10-11T19:56:12.840Z,17.24
2018-10-11T19:58:41.103Z,17.20
2018-10-11T20:01:09.385Z,17.22
2018-10-11T20:03:38.318Z,17.20
2018-10-11T20:06:06.757Z,17.16
2018-10-11T20:08:35.042Z,17.16
2018-10-11T20:11:03.346Z,17.11
2018-10-11T20:16:24.165Z,17.09
2018-10-11T20:18:52.446Z,16.99
2018-10-11T21:19:17.665Z,16.12
2018-10-11T21:21:51.649Z,16.13
2018-10-11T21:27:22.209Z,16.01
2018-10-11T21:29:50.477Z,15.84
2018-10-11T21:32:18.753Z,15.93
2018-10-11T21:34:47.037Z,15.85
2018-10-11T21:37:15.310Z,15.83
2018-10-11T21:39:43.627Z,15.84
2018-10-11T21:42:11.880Z,15.88
2018-10-11T21:44:40.175Z,15.83
2018-10-11T21:47:08.433Z,15.83
2018-10-11T21:49:36.729Z,15.82
2018-10-11T21:52:05.021Z,15.89
2018-10-11T21:54:33.294Z,15.74
2018-10-11T21:57:01.541Z,15.64
2018-10-11T21:59:29.839Z,15.68
2018-10-11T22:01:58.112Z,15.70
2018-10-11T22:04:26.401Z,15.67
2018-10-11T22:06:54.726Z,15.99
2018-10-11T22:09:23.020Z,15.91
2018-10-11T22:11:51.297Z,15.70
